createdAt,value
2023-03-26T00:02:15.401Z,30.69
2023-03-26T00:06:15.664Z,30.71
2023-03-26T00:10:15.869Z,30.70
2023-03-26T00:14:16.113Z,30.67
2023-03-26T00:18:16.351Z,30.67
2023-03-26T00:22:16.640Z,30.67
2023-03-26T00:26:16.828Z,30.64
2023-03-26T00:30:17.081Z,30.69
2023-03-26T00:34:17.340Z,30.67
2023-03-26T00:38:17.569Z,30.67
2023-03-26T00:42:17.830Z,30.63
2023-03-26T00:46:18.133Z,30.64
2023-03-26T00:50:18.338Z,30.64
2023-03-26T00:54:18.557Z,30.63
2023-03-26T00:58:18.827Z,30.62
2023-03-26T01:02:19.129Z,30.63
2023-03-26T01:06:19.334Z,30.62
2023-03-26T01:10:19.590Z,30.59
2023-03-26T01:14:19.839Z,30.63
2023-03-26T01:18:20.095Z,30.60
2023-03-26T01:22:20.357Z,30.62
2023-03-26T01:26:20.351Z,30.59
2023-03-26T01:30:20.375Z,30.60
2023-03-26T01:34:20.412Z,30.58
2023-03-26T01:38:20.410Z,30.63
2023-03-26T01:42:20.428Z,30.59
2023-03-26T01:46:20.481Z,30.60
2023-03-26T01:50:20.491Z,30.59
2023-03-26T01:54:20.507Z,30.56
2023-03-26T01:58:20.554Z,30.60
2023-03-26T02:02:20.614Z,30.58
2023-03-26T02:06:20.549Z,30.59
2023-03-26T02:10:20.653Z,30.58
2023-03-26T02:14:20.892Z,30.62
2023-03-26T02:18:21.142Z,30.57
2023-03-26T02:22:21.384Z,30.56
2023-03-26T02:26:21.641Z,30.57
2023-03-26T02:30:21.892Z,30.55
2023-03-26T02:34:22.160Z,30.56
2023-03-26T02:38:22.411Z,30.55
2023-03-26T02:42:22.683Z,30.62
2023-03-26T02:46:23.064Z,30.55
2023-03-26T02:50:23.184Z,30.54
2023-03-26T02:54:23.440Z,30.48
2023-03-26T02:58:23.792Z,30.53
2023-03-26T03:02:23.970Z,30.49
2023-03-26T03:06:24.225Z,30.53
2023-03-26T03:10:24.480Z,30.48
2023-03-26T03:14:24.728Z,30.53
2023-03-26T03:18:25.050Z,30.53
2023-03-26T03:22:25.230Z,30.49
2023-03-26T03:26:25.489Z,30.52
2023-03-26T03:30:25.754Z,30.51
2023-03-26T03:34:25.997Z,30.52
2023-03-26T03:38:26.254Z,30.48
2023-03-26T03:42:26.502Z,30.49
2023-03-26T03:46:27.149Z,30.49
2023-03-26T03:50:27.041Z,30.46
2023-03-26T03:54:27.319Z,30.46
2023-03-26T03:58:27.587Z,30.50
2023-03-26T04:02:27.930Z,30.49
2023-03-26T04:06:28.122Z,30.46
2023-03-26T04:10:28.151Z,30.46
2023-03-26T04:14:28.160Z,30.47
2023-03-26T04:18:28.165Z,30.46
2023-03-26T04:22:28.176Z,30.46
2023-03-26T04:26:28.214Z,30.41
2023-03-26T04:30:28.226Z,30.45
2023-03-26T04:34:28.242Z,30.49
2023-03-26T04:38:28.252Z,30.41
2023-03-26T04:42:28.248Z,30.45
2023-03-26T04:46:28.327Z,30.43
2023-03-26T04:50:28.263Z,30.46
2023-03-26T04:54:28.280Z,30.47
2023-03-26T04:58:28.284Z,30.42
2023-03-26T05:02:28.318Z,30.41
2023-03-26T05:06:28.282Z,30.43
2023-03-26T05:10:28.309Z,30.45
2023-03-26T05:14:28.318Z,30.39
2023-03-26T05:18:28.323Z,30.39
2023-03-26T05:22:28.333Z,30.43
2023-03-26T05:26:28.685Z,30.41
2023-03-26T05:30:28.409Z,30.38
2023-03-26T05:34:28.424Z,30.38
2023-03-26T05:38:28.444Z,30.37
2023-03-26T05:42:28.449Z,30.34
2023-03-26T05:50:28.503Z,30.31
2023-03-26T05:54:28.518Z,30.31
2023-03-26T05:58:28.534Z,30.34
2023-03-26T06:02:28.565Z,30.33
2023-03-26T06:06:28.584Z,30.30
2023-03-26T06:10:28.831Z,30.33
2023-03-26T06:14:29.078Z,30.25
2023-03-26T06:18:29.381Z,30.29
2023-03-26T06:22:29.686Z,30.22
2023-03-26T06:26:29.865Z,30.24
2023-03-26T13:54:50.372Z,29.88
2023-03-26T13:58:50.613Z,29.88
2023-03-26T14:02:50.892Z,29.84
2023-03-26T14:06:51.162Z,29.88
2023-03-26T14:10:51.434Z,29.89
2023-03-26T14:14:51.682Z,29.88
2023-03-26T14:18:51.955Z,29.86
2023-03-26T14:22:52.204Z,29.92
2023-03-26T14:26:52.453Z,29.91
2023-03-26T14:30:52.505Z,29.85
2023-03-26T14:34:52.475Z,29.92
2023-03-26T14:38:52.486Z,29.89
2023-03-26T14:42:53.953Z,29.92
2023-03-26T14:46:52.658Z,29.91
2023-03-26T14:50:52.686Z,29.93
2023-03-26T14:54:52.615Z,29.88
2023-03-26T14:58:52.634Z,29.93
2023-03-26T15:02:54.294Z,29.92
2023-03-26T15:06:52.661Z,29.92
2023-03-26T15:10:52.814Z,29.91
2023-03-26T15:14:52.954Z,29.89
2023-03-26T15:18:52.977Z,29.91
2023-03-26T15:22:52.992Z,29.93
2023-03-26T15:26:53.041Z,29.94
2023-03-26T15:30:53.299Z,29.92
2023-03-26T15:34:53.105Z,29.95
2023-03-26T15:38:53.139Z,29.93
2023-03-26T15:42:53.190Z,29.91
2023-03-26T15:46:53.236Z,29.95
2023-03-26T15:50:53.335Z,29.89
2023-03-26T15:54:53.310Z,29.93
2023-03-26T15:58:53.526Z,29.91
2023-03-26T16:02:53.697Z,29.91
2023-03-26T16:06:53.580Z,29.89
2023-03-26T16:10:53.764Z,29.91
2023-03-26T16:14:53.656Z,29.89
2023-03-26T16:18:53.692Z,29.84
2023-03-26T16:22:53.716Z,29.92
2023-03-26T16:26:53.748Z,29.89
2023-03-26T16:30:53.938Z,29.89
2023-03-26T16:34:53.842Z,29.92
2023-03-26T16:38:54.054Z,29.90
2023-03-26T16:42:54.093Z,29.92
2023-03-26T16:46:54.121Z,29.93
2023-03-26T16:50:54.311Z,29.97
2023-03-26T16:54:54.212Z,29.97
2023-03-26T16:58:54.239Z,29.96
2023-03-26T17:02:54.363Z,29.96
2023-03-26T17:06:54.362Z,29.98
2023-03-26T17:10:54.572Z,30.02
2023-03-26T17:14:54.507Z,29.98
2023-03-26T17:18:54.484Z,30.03
2023-03-26T17:22:54.519Z,30.02
2023-03-26T17:26:54.537Z,30.00
2023-03-26T17:30:54.761Z,30.00
2023-03-26T17:34:54.691Z,30.06
2023-03-26T17:38:54.636Z,30.03
2023-03-26T17:42:54.663Z,30.04
2023-03-26T17:46:54.686Z,30.04
2023-03-26T17:50:55.016Z,30.02
2023-03-26T17:54:54.760Z,30.02
2023-03-26T17:58:54.921Z,30.02
2023-03-26T18:02:55.138Z,30.04
2023-03-26T18:06:55.013Z,30.08
2023-03-26T18:10:55.190Z,30.04
2023-03-26T18:14:55.095Z,30.04
2023-03-26T18:18:55.119Z,30.02
2023-03-26T18:22:55.179Z,30.05
2023-03-26T18:26:55.220Z,30.03
2023-03-26T18:30:55.373Z,30.05
2023-03-26T18:34:55.264Z,30.05
2023-03-26T18:38:55.464Z,30.04
2023-03-26T18:42:55.721Z,30.03
2023-03-26T18:46:55.965Z,30.02
2023-03-26T18:50:56.344Z,30.04
2023-03-26T18:54:56.523Z,30.03
2023-03-26T18:58:56.553Z,30.08
2023-03-26T19:02:56.678Z,30.04
2023-03-26T19:06:56.622Z,30.04
2023-03-26T19:10:56.768Z,30.08
2023-03-26T19:14:56.686Z,30.07
2023-03-26T19:18:56.711Z,30.04
2023-03-26T19:22:56.740Z,30.00
2023-03-26T19:26:56.781Z,30.01
2023-03-26T19:30:56.998Z,30.04
2023-03-26T19:34:56.888Z,30.00
2023-03-26T19:38:57.140Z,30.05
2023-03-26T19:42:57.438Z,30.08
2023-03-26T19:46:57.741Z,30.05
2023-03-26T19:50:58.142Z,30.07
2023-03-26T19:55:00.143Z,30.03
2023-03-26T19:58:57.878Z,30.03
2023-03-26T20:02:57.949Z,30.01
2023-03-26T20:06:57.949Z,30.04
2023-03-26T20:10:58.819Z,29.99
2023-03-26T20:14:58.037Z,30.01
2023-03-26T20:18:58.082Z,30.04
2023-03-26T20:22:58.116Z,30.03
2023-03-26T20:26:58.172Z,30.00
2023-03-26T20:30:58.498Z,30.04
2023-03-26T20:34:58.480Z,30.04
2023-03-26T20:38:58.723Z,30.04
2023-03-26T20:42:59.008Z,30.05
2023-03-26T20:46:59.499Z,30.04
2023-03-26T20:50:59.313Z,30.05
2023-03-26T20:54:59.336Z,30.02
2023-03-26T21:02:59.459Z,30.01
2023-03-26T21:07:07.202Z,29.99
2023-03-26T21:11:00.490Z,30.04
2023-03-26T21:14:59.615Z,30.05
2023-03-26T21:18:59.734Z,29.99
2023-03-26T21:22:59.976Z,30.01
2023-03-26T21:27:00.219Z,30.02
2023-03-26T21:31:00.272Z,30.04
2023-03-26T21:35:00.348Z,29.97
2023-03-26T21:39:00.352Z,30.02
2023-03-26T21:43:00.380Z,30.02
2023-03-26T21:47:00.390Z,30.03
2023-03-26T21:51:00.443Z,30.02
2023-03-26T21:55:00.540Z,30.02
2023-03-26T21:59:00.527Z,29.99
2023-03-26T22:03:00.656Z,30.01
2023-03-26T22:07:00.580Z,29.99
2023-03-26T22:11:00.640Z,30.01
2023-03-26T22:15:01.015Z,29.98
2023-03-26T22:19:00.719Z,29.97
2023-03-26T22:23:00.764Z,30.01
2023-03-26T22:27:00.795Z,30.02
2023-03-26T22:31:00.821Z,30.02
2023-03-26T22:35:00.847Z,30.03
2023-03-26T22:39:00.893Z,29.99
2023-03-26T22:43:00.960Z,30.02
2023-03-26T22:47:00.938Z,30.01
2023-03-26T22:51:01.003Z,30.01
2023-03-26T22:55:01.020Z,29.99
2023-03-26T22:59:01.063Z,29.94
2023-03-26T23:03:01.201Z,29.98
2023-03-26T23:07:01.105Z,29.99
2023-03-26T23:11:01.117Z,29.98
2023-03-26T23:15:01.216Z,29.99
2023-03-26T23:19:01.169Z,29.99
2023-03-26T23:23:01.194Z,29.98
2023-03-26T23:27:01.197Z,29.95
2023-03-26T23:31:01.236Z,29.97
2023-03-26T23:35:01.249Z,29.97
2023-03-26T23:39:01.286Z,29.99
2023-03-26T23:43:01.297Z,29.97
2023-03-26T23:47:01.321Z,29.96
2023-03-26T23:51:04.101Z,29.99
2023-03-26T23:55:01.369Z,29.98
2023-03-26T23:59:01.408Z,29.93
